Time;durP1;ratioP1;P1;durP2;ratioP2;P2;SDS_P1;SDS_P2;PMS_P1;PMS_P2;Temp;Humidity;BMP_temperature;BMP_pressure;BME280_temperature;BME280_humidity;BME280_pressure;Samples;Min_cycle;Max_cycle;Signal;HPM_P1;HPM_P2
2022/11/03 00:00:06;;;;;;;4.57;1.80;;;11.40;99.90;;;11.44;100.00;101153.22;5185484;28;20517;-70
2022/11/03 00:02:43;;;;;;;3.03;1.20;;;11.40;99.90;;;11.47;100.00;101148.09;5185696;28;20112;-70
2022/11/03 00:08:07;;;;;;;5.47;1.70;;;11.40;99.90;;;11.49;100.00;101162.13;5185478;28;20038;-70
2022/11/03 00:10:39;;;;;;;3.88;1.40;;;11.40;99.90;;;11.52;100.00;101162.22;5185276;28;20038;-70
2022/11/03 00:13:11;;;;;;;5.38;1.65;;;11.40;99.90;;;11.50;100.00;101158.69;5185650;28;20041;-71
2022/11/03 00:15:48;;;;;;;3.80;1.40;;;11.40;99.90;;;11.51;100.00;101160.44;5185140;28;20461;-70
2022/11/03 00:18:20;;;;;;;6.38;1.48;;;11.50;99.90;;;11.51;100.00;101155.22;5185507;28;20048;-71
2022/11/03 00:20:59;;;;;;;4.43;1.55;;;11.50;99.90;;;11.48;100.00;101155.13;5185032;28;20048;-70
2022/11/03 00:23:34;;;;;;;6.45;1.88;;;11.40;99.90;;;11.42;100.00;101157.50;5167135;28;20061;-71
2022/11/03 00:26:10;;;;;;;6.50;2.00;;;11.40;99.90;;;11.41;100.00;101145.31;5185279;28;20052;-70
2022/11/03 00:28:44;;;;;;;4.22;1.70;;;11.40;99.90;;;11.37;100.00;101146.00;5185403;28;20046;-70
2022/11/03 00:31:19;;;;;;;4.38;1.80;;;11.40;99.90;;;11.32;100.00;101135.38;5185335;28;20046;-70
2022/11/03 00:33:52;;;;;;;6.78;1.77;;;11.30;99.90;;;11.28;100.00;101129.97;5184970;28;20060;-71
2022/11/03 00:36:28;;;;;;;6.38;1.95;;;11.30;99.90;;;11.23;100.00;101128.94;5184814;28;20054;-70
2022/11/03 00:39:02;;;;;;;8.77;2.28;;;11.30;99.90;;;11.19;100.00;101130.53;5167193;28;20506;-70
2022/11/03 00:41:35;;;;;;;5.88;1.80;;;11.20;99.90;;;11.18;100.00;101131.38;5184956;28;20578;-71
2022/11/03 00:44:09;;;;;;;5.32;2.22;;;11.20;99.90;;;11.17;100.00;101127.00;5184833;28;20042;-70
2022/11/03 00:46:41;;;;;;;4.40;1.98;;;11.20;99.90;;;11.18;100.00;101127.88;5185138;28;20673;-70
2022/11/03 00:49:13;;;;;;;6.38;1.90;;;11.20;99.90;;;11.20;100.00;101121.88;5184726;28;20057;-70
2022/11/03 00:51:47;;;;;;;5.40;2.10;;;11.20;99.90;;;11.23;100.00;101126.34;5184552;28;20054;-71
2022/11/03 00:54:19;;;;;;;6.20;2.40;;;11.20;99.90;;;11.27;100.00;101117.78;5184636;28;20050;-70
2022/11/03 00:56:51;;;;;;;5.35;2.08;;;11.20;99.90;;;11.30;100.00;101125.72;5184720;28;20046;-70
2022/11/03 00:59:24;;;;;;;6.07;2.10;;;11.30;99.90;;;11.34;100.00;101120.66;5184664;28;20052;-71
2022/11/03 01:01:56;;;;;;;8.30;2.17;;;11.30;99.90;;;11.36;100.00;101113.78;5184625;28;20486;-70
2022/11/03 01:07:34;;;;;;;6.75;2.08;;;11.40;99.90;;;11.47;100.00;101114.16;5141058;28;20050;-71
2022/11/03 01:10:08;;;;;;;5.22;1.92;;;11.40;99.90;;;11.49;100.00;101107.31;5141552;28;20057;-72
2022/11/03 01:12:40;;;;;;;7.60;2.00;;;11.50;99.90;;;11.53;100.00;101111.78;5164385;28;20154;-70
2022/11/03 01:15:13;;;;;;;9.27;2.80;;;11.50;99.90;;;11.52;100.00;101099.56;5184349;28;20041;-70
2022/11/03 01:17:45;;;;;;;6.07;1.50;;;11.50;99.90;;;11.54;100.00;101097.91;5184125;28;20631;-70
2022/11/03 01:20:18;;;;;;;6.82;1.90;;;11.50;99.90;;;11.54;100.00;101092.69;5183970;28;20042;-70
2022/11/03 01:22:52;;;;;;;4.97;1.48;;;11.50;99.90;;;11.56;100.00;101093.63;5183816;28;20499;-71
2022/11/03 01:25:24;;;;;;;7.60;2.10;;;11.50;99.90;;;11.58;100.00;101089.34;5184142;28;20515;-71
2022/11/03 01:27:56;;;;;;;8.73;1.90;;;11.50;99.90;;;11.60;100.00;101084.16;5184607;28;20041;-71
2022/11/03 01:30:28;;;;;;;4.43;1.58;;;11.50;99.90;;;11.61;100.00;101080.75;5184050;28;20575;-71
2022/11/03 01:33:00;;;;;;;6.60;1.92;;;11.60;99.90;;;11.60;100.00;101079.81;5183848;28;20050;-71
2022/11/03 01:35:33;;;;;;;7.45;1.60;;;11.60;99.90;;;11.64;100.00;101071.28;5183909;28;20096;-70
2022/11/03 01:38:07;;;;;;;7.43;1.77;;;11.60;99.90;;;11.66;100.00;101072.22;5183804;28;20060;-72
2022/11/03 01:40:39;;;;;;;7.75;2.05;;;11.60;99.90;;;11.64;100.00;101071.28;5184206;28;20042;-70
2022/11/03 01:43:21;;;;;;;5.25;2.00;;;11.60;99.90;;;11.65;100.00;101065.22;5183932;28;20461;-70
2022/11/03 01:46:03;;;;;;;4.53;1.67;;;11.60;99.90;;;11.63;100.00;101055.56;5184150;28;20413;-73
2022/11/03 01:48:39;;;;;;;3.95;1.80;;;11.60;99.90;;;11.61;100.00;101039.84;5183822;28;20471;-71
2022/11/03 01:51:15;;;;;;;5.50;1.83;;;11.60;99.90;;;11.60;100.00;101045.88;5183681;28;20498;-71
2022/11/03 01:53:50;;;;;;;2.95;1.23;;;11.60;99.90;;;11.58;100.00;101044.94;5165880;28;20046;-70
2022/11/03 01:56:23;;;;;;;3.58;1.42;;;11.60;99.90;;;11.59;100.00;101044.13;5183843;28;20046;-71
2022/11/03 01:58:56;;;;;;;6.15;1.38;;;11.50;99.90;;;11.62;100.00;101039.00;5166209;28;20069;-70
2022/11/03 02:01:29;;;;;;;5.80;1.80;;;11.60;99.90;;;11.65;100.00;101033.00;5183363;28;20056;-72
2022/11/03 02:04:08;;;;;;;8.05;2.10;;;11.60;99.90;;;11.64;100.00;101037.34;5183573;28;20046;-71
2022/11/03 02:06:41;;;;;;;6.05;1.60;;;11.60;99.90;;;11.65;100.00;101028.66;5183720;28;20081;-72
2022/11/03 02:09:16;;;;;;;7.38;1.88;;;11.60;99.90;;;11.66;100.00;101019.97;5183078;28;20435;-71
2022/11/03 02:12:06;;;;;;;4.68;1.50;;;11.60;99.90;;;11.65;100.00;101013.00;5183691;28;20045;-70
2022/11/03 02:14:43;;;;;;;6.85;1.55;;;11.60;99.90;;;11.63;100.00;101014.66;5165996;28;20123;-70
2022/11/03 02:17:17;;;;;;;6.57;1.50;;;11.60;99.90;;;11.62;100.00;101012.91;5165929;28;20410;-71
2022/11/03 02:19:55;;;;;;;10.57;2.15;;;11.60;99.90;;;11.58;100.00;100994.47;5183183;28;20129;-71
2022/11/03 02:23:04;;;;;;;4.05;1.70;;;11.60;99.90;;;11.59;100.00;101001.44;5183132;28;20142;-71
2022/11/03 02:25:43;;;;;;;5.80;1.52;;;11.60;99.90;;;11.60;100.00;100988.44;5165729;28;20076;-71
2022/11/03 02:28:19;;;;;;;2.80;1.50;;;11.60;99.90;;;11.64;100.00;100982.50;5183165;28;20439;-71
2022/11/03 02:31:02;;;;;;;9.65;2.00;;;11.60;99.90;;;11.63;100.00;100975.50;5184892;28;20065;-71
2022/11/03 02:33:46;;;;;;;8.48;1.88;;;11.60;99.90;;;11.63;100.00;100975.50;5169286;28;20419;-70
2022/11/03 02:36:23;;;;;;;3.13;1.30;;;11.60;99.90;;;11.65;100.00;100976.44;5187372;28;20048;-70
2022/11/03 02:39:00;;;;;;;3.85;1.25;;;11.60;99.90;;;11.69;100.00;100967.88;5187300;28;20060;-70
2022/11/03 02:41:37;;;;;;;9.80;1.60;;;11.60;99.90;;;11.69;100.00;100962.66;5187266;28;20494;-72
2022/11/03 02:44:15;;;;;;;4.78;1.40;;;11.70;99.90;;;11.69;100.00;100962.66;5187021;28;20046;-70
2022/11/03 02:46:55;;;;;;;5.10;1.38;;;11.70;99.90;;;11.73;100.00;100958.41;5187216;28;20050;-71
2022/11/03 02:49:28;;;;;;;5.97;1.50;;;11.70;99.90;;;11.77;100.00;100951.56;5186624;28;20048;-71
2022/11/03 02:52:01;;;;;;;3.95;1.30;;;11.70;99.90;;;11.77;100.00;100943.72;5187080;28;20147;-71
2022/11/03 02:54:38;;;;;;;4.72;1.25;;;11.70;99.90;;;11.77;100.00;100954.19;5169439;28;20061;-71
2022/11/03 02:57:19;;;;;;;3.42;1.20;;;11.70;99.90;;;11.79;100.00;100947.28;5186929;28;20561;-71
2022/11/03 02:59:59;;;;;;;5.82;1.45;;;11.70;99.90;;;11.81;100.00;100948.25;5186590;28;20056;-70
2022/11/03 03:02:39;;;;;;;3.35;1.58;;;11.70;99.90;;;11.81;100.00;100945.66;5169272;28;20080;-70
2022/11/03 03:05:14;;;;;;;4.35;1.13;;;11.70;99.90;;;11.81;100.00;100943.94;5168785;28;20107;-71
2022/11/03 03:07:52;;;;;;;3.22;1.40;;;11.70;99.90;;;11.81;100.00;100943.94;5187076;28;20569;-70
2022/11/03 03:10:29;;;;;;;5.28;1.10;;;11.70;99.90;;;11.80;100.00;100941.19;5186455;28;20135;-72
2022/11/03 03:13:05;;;;;;;5.90;1.35;;;11.70;99.90;;;11.80;100.00;100933.38;5186691;28;20413;-70
2022/11/03 03:15:45;;;;;;;2.55;1.33;;;11.70;99.90;;;11.80;100.00;100929.06;5186710;28;20407;-71
2022/11/03 03:18:24;;;;;;;2.30;1.10;;;11.70;99.90;;;11.79;100.00;100934.22;5186589;28;20038;-72
2022/11/03 03:21:03;;;;;;;5.03;1.23;;;11.70;99.90;;;11.77;100.00;100915.00;5186303;28;20498;-72
2022/11/03 03:23:46;;;;;;;9.05;1.50;;;11.70;99.90;;;11.75;100.00;100916.69;5186517;28;20046;-70
2022/11/03 03:26:25;;;;;;;4.18;1.20;;;11.70;99.90;;;11.72;100.00;100903.53;5168705;28;20060;-74
2022/11/03 03:29:05;;;;;;;5.35;1.40;;;11.70;99.90;;;11.72;100.00;100903.53;5168586;28;20069;-73
2022/11/03 03:31:44;;;;;;;5.18;1.55;;;11.70;99.90;;;11.71;100.00;100901.75;5184921;28;20053;-74
2022/11/03 03:34:18;;;;;;;4.25;1.40;;;11.70;99.90;;;11.73;100.00;100893.13;5168369;28;20072;-73
2022/11/03 03:36:52;;;;;;;5.50;1.52;;;11.70;99.90;;;11.72;100.00;100893.97;5186146;28;20038;-74
2022/11/03 03:39:28;;;;;;;4.25;1.70;;;11.70;99.90;;;11.74;100.00;100888.81;5185809;28;20068;-73
2022/11/03 03:42:04;;;;;;;4.30;1.20;;;11.70;99.90;;;11.77;100.00;100892.38;5184356;28;20042;-74
2022/11/03 03:44:40;;;;;;;5.53;1.60;;;11.70;99.90;;;11.77;100.00;100887.16;5168527;28;20050;-73
2022/11/03 03:47:19;;;;;;;4.53;1.23;;;11.70;99.90;;;11.79;100.00;100881.97;5185766;28;20041;-75
2022/11/03 03:49:51;;;;;;;4.60;1.35;;;11.70;99.90;;;11.80;100.00;100882.06;5168055;28;20521;-73
2022/11/03 03:52:24;;;;;;;8.50;1.70;;;11.70;99.90;;;11.82;100.00;100880.41;5185609;28;20045;-73
2022/11/03 03:54:57;;;;;;;4.28;1.17;;;11.80;99.90;;;11.85;100.00;100880.47;5185950;28;20038;-74
2022/11/03 03:57:31;;;;;;;3.67;1.42;;;11.80;99.90;;;11.86;100.00;100886.59;5168469;28;20054;-74
2022/11/03 04:00:07;;;;;;;7.43;1.90;;;11.80;99.90;;;11.88;100.00;100884.94;5185734;28;20056;-73
2022/11/03 04:02:44;;;;;;;6.47;1.40;;;11.80;99.90;;;11.91;100.00;100885.91;5185565;28;20052;-73
2022/11/03 04:05:16;;;;;;;7.00;1.95;;;11.90;99.90;;;11.91;100.00;100871.94;5184294;28;20062;-74
2022/11/03 04:07:48;;;;;;;3.35;1.55;;;11.90;99.90;;;11.92;100.00;100876.31;5185589;28;20038;-74
2022/11/03 04:10:22;;;;;;;5.07;1.33;;;11.80;99.90;;;11.92;100.00;100871.09;5185316;28;20053;-74
2022/11/03 04:24:14;;;;;;;4.60;1.40;;;11.90;99.90;;;11.92;100.00;100858.03;5167705;28;20042;-74
2022/11/03 04:26:46;;;;;;;5.80;2.05;;;11.90;99.90;;;11.92;100.00;100855.44;5184885;28;20487;-73
2022/11/03 04:29:18;;;;;;;4.90;1.20;;;11.90;99.90;;;11.94;100.00;100853.78;5167245;28;20060;-73
2022/11/03 04:31:52;;;;;;;9.55;1.58;;;11.90;99.90;;;11.95;100.00;100845.97;5184865;28;20228;-73
2022/11/03 04:34:25;;;;;;;4.57;1.40;;;11.90;99.90;;;12.02;100.00;100840.94;5184898;28;20037;-74
2022/11/03 04:36:57;;;;;;;9.82;1.83;;;11.90;99.90;;;11.96;100.00;100825.97;5184762;28;20054;-74
2022/11/03 04:39:30;;;;;;;6.07;1.65;;;11.90;99.90;;;12.00;100.00;100830.44;5183259;28;20057;-74
2022/11/03 04:42:02;;;;;;;4.72;1.42;;;11.90;99.90;;;12.01;100.00;100823.50;5184539;28;20065;-74
2022/11/03 04:44:34;;;;;;;5.57;1.35;;;12.00;99.90;;;12.05;100.00;100823.59;5184892;28;20377;-74
2022/11/03 04:47:12;;;;;;;5.50;1.60;;;12.00;99.90;;;12.03;100.00;100832.25;5184788;28;20065;-75
2022/11/03 04:49:47;;;;;;;5.68;1.95;;;12.00;99.90;;;12.05;100.00;100821.00;5184514;28;20042;-75
2022/11/03 04:52:21;;;;;;;7.45;1.35;;;12.00;99.90;;;12.03;100.00;100825.28;5184604;28;20077;-74
2022/11/03 04:54:54;;;;;;;6.40;1.55;;;12.00;99.90;;;12.03;100.00;100811.34;5183822;28;20056;-74
2022/11/03 04:57:29;;;;;;;5.50;1.30;;;12.00;99.90;;;12.03;100.00;100809.63;5184428;28;20450;-74
2022/11/03 05:00:01;;;;;;;4.25;1.10;;;12.00;99.90;;;12.05;100.00;100815.75;5182659;28;20152;-74
2022/11/03 05:02:34;;;;;;;6.65;1.23;;;12.00;99.90;;;12.06;100.00;100809.72;5184281;28;20046;-74
2022/11/03 05:05:17;;;;;;;7.13;1.67;;;12.00;99.90;;;12.11;100.00;100800.25;5184947;28;20057;-74
2022/11/03 05:07:53;;;;;;;4.57;1.40;;;12.00;99.90;;;12.12;100.00;100804.66;5184309;28;20041;-74
2022/11/03 05:10:28;;;;;;;7.15;1.70;;;12.10;99.90;;;12.16;100.00;100803.03;5166344;28;20108;-73
2022/11/03 05:13:00;;;;;;;;;;;12.10;99.90;;;12.12;100.00;100795.94;5184633;28;20041;-74
2022/11/03 05:15:36;;;;;;;5.50;1.30;;;12.10;99.90;;;12.10;100.00;100785.44;5184305;28;19921;-74
2022/11/03 05:18:19;;;;;;;5.25;1.33;;;12.10;99.90;;;12.08;100.00;100784.50;5182995;28;20046;-73
2022/11/03 05:20:55;;;;;;;8.27;1.80;;;12.10;99.90;;;12.07;100.00;100787.97;5183950;28;20049;-74
2022/11/03 05:23:30;;;;;;;8.38;1.98;;;12.00;99.90;;;12.00;100.00;100778.19;5166397;28;20056;-74
2022/11/03 05:26:03;;;;;;;4.55;1.50;;;12.00;99.90;;;11.97;100.00;100775.47;5184130;28;20046;-73
2022/11/03 05:28:38;;;;;;;4.70;1.98;;;12.00;99.90;;;11.97;100.00;100769.38;5184150;28;20521;-74
2022/11/03 05:31:23;;;;;;;4.80;2.25;;;12.00;99.90;;;11.96;100.00;100768.50;5183753;28;20191;-74
2022/11/03 05:33:59;;;;;;;3.20;1.83;;;11.90;99.90;;;11.97;100.00;100770.25;5184178;28;20237;-74
2022/11/03 05:36:33;;;;;;;6.85;2.35;;;12.00;99.90;;;11.97;100.00;100765.03;5183874;28;20491;-74
2022/11/03 05:39:30;;;;;;;5.00;1.90;;;12.00;99.90;;;12.02;100.00;100760.81;5183760;28;20054;-74
2022/11/03 05:42:24;;;;;;;5.72;1.80;;;12.00;99.90;;;12.02;100.00;100758.22;5183867;28;20046;-74
2022/11/03 05:44:57;;;;;;;5.03;1.50;;;12.00;99.90;;;12.06;100.00;100754.84;5166312;28;20050;-74
2022/11/03 05:47:37;;;;;;;7.70;1.77;;;12.00;99.90;;;12.08;100.00;100753.16;5184328;28;20549;-74
2022/11/03 05:50:21;;;;;;;6.15;1.55;;;12.00;99.90;;;12.11;100.00;100748.00;5183576;28;20045;-74
2022/11/03 05:52:57;;;;;;;6.22;1.77;;;12.10;99.90;;;12.15;100.00;100746.38;5256198;22;20056;-71
2022/11/03 05:55:33;;;;;;;8.02;1.90;;;12.10;99.90;;;12.18;100.00;100749.94;5184792;28;20848;-71
2022/11/03 05:58:20;;;;;;;4.43;2.00;;;12.10;99.90;;;12.22;100.00;100736.13;5203660;28;20049;-71
2022/11/03 06:00:52;;;;;;;3.55;1.48;;;12.10;99.90;;;12.26;100.00;100734.50;5186504;28;20053;-71
2022/11/03 06:03:29;;;;;;;7.88;1.90;;;12.20;99.90;;;12.29;100.00;100734.56;5202983;28;20046;-71
2022/11/03 06:06:12;;;;;;;6.05;1.40;;;12.20;99.90;;;12.38;100.00;100726.06;5208836;28;20076;-72
2022/11/03 06:08:45;;;;;;;4.55;1.40;;;12.30;99.90;;;12.39;100.00;100743.56;5207848;28;20076;-72
2022/11/03 06:11:27;;;;;;;4.30;1.80;;;12.30;99.90;;;12.37;100.00;100735.66;5206871;28;20041;-71
2022/11/03 06:14:00;;;;;;;4.57;1.40;;;12.30;99.90;;;12.39;100.00;100727.88;5209207;28;20049;-72
2022/11/03 06:16:44;;;;;;;9.98;3.03;;;12.30;99.90;;;12.39;100.00;100727.88;5209428;28;20116;-71
2022/11/03 06:19:25;;;;;;;7.13;2.25;;;12.30;99.90;;;12.37;100.00;100734.75;5189823;28;20044;-72
2022/11/03 06:22:04;;;;;;;5.90;2.08;;;12.30;99.90;;;12.38;100.00;100726.06;5208754;28;20042;-72
2022/11/03 06:24:36;;;;;;;5.30;1.73;;;12.30;99.90;;;12.38;100.00;100728.69;5209975;28;20414;-72
2022/11/03 06:27:13;;;;;;;5.78;1.55;;;12.30;99.90;;;12.39;100.00;100728.75;5208915;28;20409;-71
2022/11/03 06:29:50;;;;;;;4.72;1.60;;;12.30;99.90;;;12.35;100.00;100726.00;5207739;28;20127;-72
2022/11/03 06:32:23;;;;;;;6.28;1.50;;;12.30;99.90;;;12.32;100.00;100726.78;5200876;28;20173;-72
2022/11/03 06:34:58;;;;;;;5.72;1.55;;;12.30;99.90;;;12.32;100.00;100723.28;5208363;28;20517;-71
2022/11/03 06:37:34;;;;;;;5.88;1.40;;;12.30;99.90;;;12.31;100.00;100718.91;5209002;28;20117;-71
2022/11/03 06:40:34;;;;;;;6.03;2.03;;;12.30;99.90;;;12.31;100.00;100718.91;5208385;28;20084;-71
2022/11/03 06:43:16;;;;;;;7.00;2.00;;;12.30;99.90;;;12.30;100.00;100706.69;5208731;28;20049;-71
2022/11/03 06:45:54;;;;;;;6.72;1.80;;;12.20;99.90;;;12.25;100.00;100698.72;5208820;28;20049;-71
2022/11/03 06:48:29;;;;;;;5.75;1.85;;;12.20;99.90;;;12.26;100.00;100684.84;5207490;28;20117;-71
2022/11/03 06:51:01;;;;;;;6.82;2.22;;;12.20;99.90;;;12.25;100.00;100666.47;5210538;28;20065;-71
2022/11/03 06:53:36;;;;;;;7.13;2.03;;;12.20;99.90;;;12.14;100.00;100648.81;5209534;28;20056;-71
2022/11/03 06:56:12;;;;;;;6.03;1.90;;;12.20;99.90;;;12.12;100.00;100640.03;5208397;28;20048;-71
2022/11/03 06:58:47;;;;;;;7.47;1.80;;;12.10;99.90;;;12.12;100.00;100637.41;5207578;28;20357;-71
2022/11/03 07:01:22;;;;;;;6.38;1.80;;;12.10;99.90;;;12.15;100.00;100647.97;5207794;28;20106;-72
2022/11/03 07:04:01;;;;;;;4.40;1.73;;;12.10;99.90;;;12.19;100.00;100659.38;5201769;28;20041;-56
2022/11/03 07:06:36;;;;;;;9.05;1.80;;;12.10;99.90;;;12.18;100.00;100645.41;5210686;28;20259;-56
2022/11/03 07:09:19;;;;;;;9.20;1.88;;;12.10;99.90;;;12.22;100.00;100634.22;5210141;28;20056;-57
2022/11/03 07:11:54;;;;;;;4.68;1.48;;;12.20;99.90;;;12.23;100.00;100635.97;5210646;28;20081;-56
2022/11/03 07:14:29;;;;;;;5.78;1.60;;;12.20;99.90;;;12.25;100.00;100646.47;5210281;28;20087;-57
2022/11/03 07:17:04;;;;;;;5.30;1.55;;;12.20;99.90;;;12.28;100.00;100637.84;5206098;28;20049;-57
2022/11/03 07:19:41;;;;;;;7.65;2.67;;;12.20;99.90;;;12.32;100.00;100639.66;5207493;28;20112;-57
2022/11/03 07:22:19;;;;;;;7.00;1.52;;;12.30;99.90;;;12.36;100.00;100638.91;5207258;28;20046;-59
2022/11/03 07:24:56;;;;;;;5.10;1.80;;;12.30;99.90;;;12.38;100.00;100640.69;5194165;28;20384;-57
2022/11/03 07:27:31;;;;;;;3.70;1.60;;;12.30;99.90;;;12.42;100.00;100637.31;5206632;28;20042;-55
2022/11/03 07:30:18;;;;;;;4.60;1.50;;;12.40;99.90;;;12.47;100.00;100637.44;5206434;28;20528;-56
2022/11/03 07:32:52;;;;;;;4.57;1.60;;;12.40;99.90;;;12.50;100.00;100627.94;5198652;28;20048;-57
2022/11/03 07:35:32;;;;;;;6.40;1.70;;;12.40;99.90;;;12.58;100.00;100628.09;5181440;28;20116;-56
2022/11/03 07:38:13;;;;;;;5.60;1.50;;;12.50;99.90;;;12.63;100.00;100629.09;5219399;28;20041;-56
2022/11/03 07:40:46;;;;;;;9.07;2.10;;;12.60;99.90;;;12.66;100.00;100616.13;5206064;28;20104;-58
2022/11/03 07:43:23;;;;;;;8.43;2.05;;;12.60;99.90;;;12.75;100.00;100618.06;5206351;28;20058;-56
2022/11/03 07:45:57;;;;;;;4.05;1.58;;;12.60;99.90;;;12.77;100.00;100612.00;5206842;28;20049;-56
2022/11/03 07:48:35;;;;;;;5.05;1.20;;;12.70;99.90;;;12.86;100.00;100619.19;5206220;28;20145;-55
2022/11/03 07:51:23;;;;;;;9.60;1.80;;;12.70;99.90;;;12.95;100.00;100618.50;5206287;28;20037;-56
2022/11/03 07:54:01;;;;;;;7.60;2.40;;;12.80;99.90;;;13.05;100.00;100610.03;5197307;28;20042;-58
2022/11/03 07:56:39;;;;;;;5.57;1.85;;;12.90;99.90;;;13.12;100.00;100606.69;5186409;28;20052;-59
2022/11/03 07:59:16;;;;;;;5.40;1.77;;;12.90;99.90;;;13.18;100.00;100603.31;5185774;28;20042;-55
2022/11/03 08:01:51;;;;;;;5.50;1.67;;;13.00;99.90;;;13.27;100.00;100596.56;5205699;28;20498;-57
2022/11/03 08:04:25;;;;;;;5.60;1.70;;;13.10;99.90;;;13.40;100.00;100599.44;5205845;28;20049;-56
2022/11/03 08:06:57;;;;;;;7.65;2.05;;;13.20;99.90;;;13.48;100.00;100588.25;5205793;28;20049;-56
2022/11/03 08:09:30;;;;;;;7.55;1.80;;;13.30;99.90;;;13.51;100.00;100597.94;5205517;28;20045;-57
2022/11/03 08:12:03;;;;;;;5.18;1.75;;;13.30;99.90;;;13.56;100.00;100601.50;5205079;28;20041;-56
2022/11/03 08:14:36;;;;;;;7.22;2.30;;;13.40;99.90;;;13.59;100.00;100612.03;5205976;28;20051;-57
2022/11/03 08:17:08;;;;;;;8.57;2.08;;;13.40;99.90;;;13.54;100.00;100605.81;5205972;28;20366;-55
2022/11/03 08:19:41;;;;;;;7.88;2.20;;;13.40;99.90;;;13.53;100.00;100601.44;5203843;28;20116;-56
2022/11/03 08:22:13;;;;;;;7.18;1.90;;;13.40;99.90;;;13.56;100.00;100601.50;5199221;28;20046;-57
2022/11/03 08:24:45;;;;;;;5.82;1.77;;;13.30;99.90;;;13.56;100.00;100611.97;5204565;28;20049;-57
2022/11/03 08:27:19;;;;;;;4.60;1.65;;;13.40;99.90;;;13.56;100.00;100601.50;5187354;28;20112;-58
2022/11/03 08:29:51;;;;;;;5.22;1.40;;;13.40;99.90;;;13.55;100.00;100592.75;5201129;28;20046;-58
2022/11/03 08:32:24;;;;;;;7.00;1.60;;;13.40;99.90;;;13.54;100.00;100590.13;5205032;28;20034;-58
2022/11/03 08:34:57;;;;;;;5.97;2.40;;;13.40;99.90;;;13.58;100.00;100589.34;5205658;28;20041;-58
2022/11/03 08:37:29;;;;;;;5.85;1.70;;;13.40;99.90;;;13.58;100.00;100586.72;5205456;28;20450;-56
2022/11/03 08:40:01;;;;;;;5.65;1.50;;;13.40;99.90;;;13.57;100.00;100587.56;5203886;28;20100;-58
2022/11/03 08:42:36;;;;;;;6.97;1.65;;;13.40;99.90;;;13.62;100.00;100579.78;5205589;28;20057;-58
2022/11/03 08:45:10;;;;;;;6.25;1.30;;;13.40;99.90;;;13.70;100.00;100580.84;5203783;28;20506;-58
2022/11/03 08:47:42;;;;;;;6.50;1.35;;;13.50;99.90;;;13.75;100.00;100568.69;5205538;28;20037;-58
2022/11/03 08:50:15;;;;;;;4.15;1.40;;;13.50;99.90;;;13.82;100.00;100568.84;5205594;28;20042;-59
2022/11/03 08:52:48;;;;;;;6.35;1.70;;;13.60;99.90;;;13.92;100.00;100562.00;5205226;28;20049;-58
2022/11/03 08:55:20;;;;;;;9.35;1.65;;;13.70;99.90;;;14.06;100.00;100551.75;5205658;28;20470;-55
2022/11/03 08:57:54;;;;;;;3.13;1.23;;;13.80;99.90;;;14.19;100.00;100538.00;5205459;28;20045;-55
2022/11/03 09:00:26;;;;;;;8.77;1.73;;;13.90;99.90;;;14.27;100.00;100533.75;5205215;28;20080;-57
2022/11/03 09:02:59;;;;;;;6.88;1.90;;;14.00;99.90;;;14.35;100.00;100531.28;5187464;28;20045;-56
2022/11/03 09:05:31;;;;;;;5.07;1.60;;;14.10;99.90;;;14.47;100.00;100539.34;5205481;28;20052;-60
2022/11/03 09:08:04;;;;;;;5.53;1.50;;;14.20;99.90;;;14.57;100.00;100527.25;5204940;28;20498;-57
2022/11/03 09:10:36;;;;;;;8.30;1.80;;;14.30;99.90;;;14.65;100.00;100531.72;5204957;28;20206;-56
2022/11/03 09:13:10;;;;;;;6.70;1.50;;;14.40;99.90;;;14.70;100.00;100525.69;5185169;28;20509;-57
2022/11/03 09:15:43;;;;;;;4.47;1.52;;;14.40;99.90;;;14.71;100.00;100517.81;5200689;28;20049;-57
2022/11/03 09:18:17;;;;;;;7.13;1.80;;;14.50;99.90;;;14.70;100.00;100509.94;5184345;28;20057;-57
2022/11/03 09:20:50;;;;;;;5.57;1.73;;;14.50;99.90;;;14.66;100.00;100509.88;5201354;28;20494;-56
2022/11/03 09:23:22;;;;;;;5.63;1.70;;;14.40;99.90;;;14.69;100.00;100498.56;5201246;28;20073;-59
2022/11/03 09:25:54;;;;;;;7.22;1.83;;;14.40;99.90;;;14.61;100.00;100497.59;5192126;28;20054;-55
2022/11/03 09:28:28;;;;;;;6.63;1.30;;;14.40;99.90;;;14.59;100.00;100499.28;5186306;28;20053;-56
2022/11/03 09:31:00;;;;;;;5.55;1.90;;;14.40;99.90;;;14.55;100.00;100492.25;5197704;28;20131;-55
2022/11/03 09:33:32;;;;;;;3.88;1.52;;;14.40;99.90;;;14.55;100.00;100480.03;5204024;28;20045;-56
2022/11/03 09:36:04;;;;;;;8.40;2.30;;;14.30;99.90;;;14.53;100.00;100470.34;5201407;28;20417;-56
2022/11/03 09:38:37;;;;;;;3.58;1.40;;;14.30;99.90;;;14.55;100.00;100468.66;5203613;28;20234;-57
2022/11/03 09:41:16;;;;;;;6.68;2.10;;;14.30;99.90;;;14.51;100.00;100441.50;5185704;28;20081;-56
2022/11/03 09:43:51;;;;;;;5.63;2.15;;;14.40;99.90;;;14.54;100.00;100431.06;5203755;28;20038;-56
2022/11/03 09:46:23;;;;;;;6.32;2.05;;;14.40;99.90;;;14.58;100.00;100442.44;5203622;28;20048;-56
2022/11/03 09:48:56;;;;;;;8.20;3.05;;;14.40;99.90;;;14.64;100.00;100437.28;5203719;28;20282;-58
2022/11/03 09:51:29;;;;;;;7.78;2.60;;;14.40;99.90;;;14.64;100.00;100439.91;5201741;28;20060;-56
2022/11/03 09:54:04;;;;;;;8.18;2.42;;;14.50;99.90;;;14.68;100.00;100423.34;5196752;28;20038;-57
2022/11/03 09:56:37;;;;;;;7.22;2.60;;;14.50;99.90;;;14.70;100.00;100415.50;5200929;28;20040;-57
2022/11/03 09:59:17;;;;;;;12.05;2.45;;;14.50;99.90;;;14.69;100.00;100409.38;5199668;28;20433;-57
2022/11/03 10:01:52;;;;;;;7.68;3.10;;;14.50;99.90;;;14.68;100.00;100396.25;5199919;28;20045;-56
2022/11/03 10:04:27;;;;;;;12.85;3.45;;;14.50;99.90;;;14.69;100.00;100377.00;5203356;28;20456;-57
2022/11/03 10:06:59;;;;;;;6.63;1.85;;;14.50;99.90;;;14.64;100.00;100369.97;5203581;28;20068;-57
2022/11/03 10:09:32;;;;;;;4.20;1.55;;;14.50;99.90;;;14.68;100.00;100380.50;5197699;28;20057;-56
2022/11/03 10:12:04;;;;;;;4.25;1.70;;;14.50;99.90;;;14.63;100.00;100373.44;5199270;28;20045;-57
2022/11/03 10:14:37;;;;;;;3.53;1.23;;;14.50;99.90;;;14.61;100.00;100374.31;5203500;28;20045;-58
2022/11/03 10:17:16;;;;;;;5.82;1.30;;;14.50;99.90;;;14.64;100.00;100377.81;5203198;28;20383;-56
2022/11/03 10:19:52;;;;;;;5.20;1.20;;;14.50;99.90;;;14.63;100.00;100376.06;5198805;28;20049;-57
2022/11/03 10:22:24;;;;;;;5.82;1.30;;;14.50;99.90;;;14.63;100.00;100381.31;5196427;28;20491;-58
2022/11/03 10:25:34;;;;;;;6.78;1.73;;;14.50;99.90;;;14.66;100.00;100378.72;5200248;28;20398;-56
2022/11/03 10:28:20;;;;;;;5.18;1.60;;;14.50;99.90;;;14.70;100.00;100368.28;5203104;28;20053;-56
2022/11/03 10:30:56;;;;;;;7.53;1.73;;;14.60;99.90;;;14.73;100.00;100369.16;5203776;28;20128;-57
2022/11/03 10:33:34;;;;;;;5.85;2.00;;;14.50;99.90;;;14.76;100.00;100374.47;5201535;28;20065;-57
2022/11/03 10:36:24;;;;;;;7.10;1.83;;;14.60;99.90;;;14.78;100.00;100367.50;5200267;28;20099;-58
2022/11/03 10:38:57;;;;;;;5.20;1.40;;;14.60;99.90;;;14.77;100.00;100359.59;5202699;28;20073;-57
2022/11/03 10:41:31;;;;;;;5.80;1.45;;;14.60;99.90;;;14.66;100.00;100336.75;5200270;28;20048;-57
2022/11/03 10:44:18;;;;;;;5.20;1.40;;;14.50;99.90;;;14.60;100.00;100330.56;5201589;28;20518;-57
2022/11/03 10:46:59;;;;;;;3.30;1.20;;;14.50;99.90;;;14.61;100.00;100312.22;5203319;28;20053;-58
2022/11/03 10:49:32;;;;;;;5.45;1.33;;;14.50;99.90;;;14.61;100.00;100311.34;5203878;28;20136;-61
2022/11/03 10:52:19;;;;;;;4.30;1.30;;;14.50;99.90;;;14.61;100.00;100306.09;5204695;28;20053;-56
2022/11/03 10:54:53;;;;;;;3.63;1.02;;;14.50;99.90;;;14.64;100.00;100306.13;5207747;28;20046;-58
2022/11/03 10:57:28;;;;;;;4.35;1.15;;;14.50;99.90;;;14.64;100.00;100306.13;5207641;28;20057;-57